sensor_id;sensor_type;location;lat;lon;timestamp;P1;durP1;ratioP1;P2;durP2;ratioP2
39370;SDS011;25099;51.946;4.838;2022-12-07T00:00:04;12.27;;;4.55;;
39370;SDS011;25099;51.946;4.838;2022-12-07T00:02:30;13.13;;;4.68;;
39370;SDS011;25099;51.946;4.838;2022-12-07T00:04:56;9.70;;;4.43;;
39370;SDS011;25099;51.946;4.838;2022-12-07T00:07:22;10.93;;;4.43;;
39370;SDS011;25099;51.946;4.838;2022-12-07T00:09:47;5.28;;;3.15;;
39370;SDS011;25099;51.946;4.838;2022-12-07T00:12:13;6.13;;;4.00;;
39370;SDS011;25099;51.946;4.838;2022-12-07T00:14:38;8.27;;;3.47;;
39370;SDS011;25099;51.946;4.838;2022-12-07T00:17:04;5.72;;;3.55;;
39370;SDS011;25099;51.946;4.838;2022-12-07T00:19:29;9.20;;;2.80;;
39370;SDS011;25099;51.946;4.838;2022-12-07T00:21:55;6.97;;;2.60;;
39370;SDS011;25099;51.946;4.838;2022-12-07T00:24:20;9.15;;;3.25;;
39370;SDS011;25099;51.946;4.838;2022-12-07T00:26:46;7.45;;;3.15;;
39370;SDS011;25099;51.946;4.838;2022-12-07T00:29:16;10.00;;;3.35;;
39370;SDS011;25099;51.946;4.838;2022-12-07T00:31:43;9.05;;;2.28;;
39370;SDS011;25099;51.946;4.838;2022-12-07T00:34:13;13.80;;;2.90;;
39370;SDS011;25099;51.946;4.838;2022-12-07T00:36:41;5.47;;;2.78;;
39370;SDS011;25099;51.946;4.838;2022-12-07T00:39:07;8.40;;;3.20;;
39370;SDS011;25099;51.946;4.838;2022-12-07T00:41:33;14.15;;;3.22;;
39370;SDS011;25099;51.946;4.838;2022-12-07T00:43:59;10.10;;;3.33;;
39370;SDS011;25099;51.946;4.838;2022-12-07T00:46:24;7.10;;;2.70;;
39370;SDS011;25099;51.946;4.838;2022-12-07T00:48:51;4.93;;;1.98;;
39370;SDS011;25099;51.946;4.838;2022-12-07T00:51:19;5.05;;;2.08;;
39370;SDS011;25099;51.946;4.838;2022-12-07T00:53:46;9.73;;;2.17;;
39370;SDS011;25099;51.946;4.838;2022-12-07T00:56:14;3.53;;;1.52;;
39370;SDS011;25099;51.946;4.838;2022-12-07T00:58:41;7.80;;;1.70;;
39370;SDS011;25099;51.946;4.838;2022-12-07T01:01:07;6.03;;;1.70;;
39370;SDS011;25099;51.946;4.838;2022-12-07T01:03:33;5.07;;;1.75;;
39370;SDS011;25099;51.946;4.838;2022-12-07T01:05:59;5.22;;;1.80;;
39370;SDS011;25099;51.946;4.838;2022-12-07T01:08:25;5.85;;;1.95;;
39370;SDS011;25099;51.946;4.838;2022-12-07T01:11:05;6.63;;;2.00;;
39370;SDS011;25099;51.946;4.838;2022-12-07T01:13:33;11.23;;;2.20;;
39370;SDS011;25099;51.946;4.838;2022-12-07T01:16:00;7.07;;;1.67;;
39370;SDS011;25099;51.946;4.838;2022-12-07T01:18:29;6.80;;;2.05;;
39370;SDS011;25099;51.946;4.838;2022-12-07T01:21:02;8.75;;;1.52;;
39370;SDS011;25099;51.946;4.838;2022-12-07T01:23:32;4.25;;;1.60;;
39370;SDS011;25099;51.946;4.838;2022-12-07T01:26:03;4.53;;;1.85;;
39370;SDS011;25099;51.946;4.838;2022-12-07T01:28:31;8.55;;;1.90;;
39370;SDS011;25099;51.946;4.838;2022-12-07T01:31:04;5.05;;;1.77;;
39370;SDS011;25099;51.946;4.838;2022-12-07T01:33:32;3.45;;;1.40;;
39370;SDS011;25099;51.946;4.838;2022-12-07T01:36:04;6.85;;;1.85;;
39370;SDS011;25099;51.946;4.838;2022-12-07T01:38:32;7.68;;;1.67;;
39370;SDS011;25099;51.946;4.838;2022-12-07T01:40:59;6.15;;;1.40;;
39370;SDS011;25099;51.946;4.838;2022-12-07T01:43:26;8.70;;;1.30;;
39370;SDS011;25099;51.946;4.838;2022-12-07T01:45:53;6.82;;;1.48;;
39370;SDS011;25099;51.946;4.838;2022-12-07T01:48:39;9.20;;;2.40;;
39370;SDS011;25099;51.946;4.838;2022-12-07T01:51:10;5.20;;;1.20;;
39370;SDS011;25099;51.946;4.838;2022-12-07T01:53:39;4.57;;;1.45;;
39370;SDS011;25099;51.946;4.838;2022-12-07T01:56:10;2.85;;;1.08;;
39370;SDS011;25099;51.946;4.838;2022-12-07T01:58:39;5.50;;;1.35;;
39370;SDS011;25099;51.946;4.838;2022-12-07T02:01:06;5.85;;;1.30;;
39370;SDS011;25099;51.946;4.838;2022-12-07T02:03:36;5.25;;;1.23;;
39370;SDS011;25099;51.946;4.838;2022-12-07T02:06:04;7.05;;;1.20;;
39370;SDS011;25099;51.946;4.838;2022-12-07T02:08:30;5.88;;;1.17;;
39370;SDS011;25099;51.946;4.838;2022-12-07T02:11:00;4.13;;;1.08;;
39370;SDS011;25099;51.946;4.838;2022-12-07T02:13:28;12.05;;;1.38;;
39370;SDS011;25099;51.946;4.838;2022-12-07T02:31:37;9.70;;;1.38;;
39370;SDS011;25099;51.946;4.838;2022-12-07T02:37:19;3.03;;;1.00;;
39370;SDS011;25099;51.946;4.838;2022-12-07T02:42:43;4.40;;;0.82;;
39370;SDS011;25099;51.946;4.838;2022-12-07T02:45:13;6.90;;;1.00;;
39370;SDS011;25099;51.946;4.838;2022-12-07T02:47:42;7.70;;;0.87;;
39370;SDS011;25099;51.946;4.838;2022-12-07T02:50:09;5.07;;;0.90;;
39370;SDS011;25099;51.946;4.838;2022-12-07T02:52:35;9.38;;;0.80;;
39370;SDS011;25099;51.946;4.838;2022-12-07T02:55:01;6.35;;;0.93;;
39370;SDS011;25099;51.946;4.838;2022-12-07T03:08:01;4.00;;;0.77;;
39370;SDS011;25099;51.946;4.838;2022-12-07T03:10:54;4.43;;;0.82;;
39370;SDS011;25099;51.946;4.838;2022-12-07T03:16:14;8.18;;;1.67;;
39370;SDS011;25099;51.946;4.838;2022-12-07T03:18:46;5.03;;;0.88;;
39370;SDS011;25099;51.946;4.838;2022-12-07T03:21:27;6.05;;;0.90;;
39370;SDS011;25099;51.946;4.838;2022-12-07T03:24:16;5.32;;;0.95;;
39370;SDS011;25099;51.946;4.838;2022-12-07T03:26:59;3.78;;;0.80;;
39370;SDS011;25099;51.946;4.838;2022-12-07T03:29:44;3.88;;;0.82;;
39370;SDS011;25099;51.946;4.838;2022-12-07T03:32:15;6.57;;;1.15;;
39370;SDS011;25099;51.946;4.838;2022-12-07T03:34:50;7.93;;;1.58;;
39370;SDS011;25099;51.946;4.838;2022-12-07T03:42:42;3.50;;;1.10;;
39370;SDS011;25099;51.946;4.838;2022-12-07T03:45:08;5.40;;;1.48;;
39370;SDS011;25099;51.946;4.838;2022-12-07T03:47:37;2.97;;;1.10;;
39370;SDS011;25099;51.946;4.838;2022-12-07T03:56:14;9.30;;;1.50;;
39370;SDS011;25099;51.946;4.838;2022-12-07T03:58:40;7.05;;;0.98;;
39370;SDS011;25099;51.946;4.838;2022-12-07T04:01:06;5.18;;;1.08;;
39370;SDS011;25099;51.946;4.838;2022-12-07T04:03:32;5.30;;;0.75;;
39370;SDS011;25099;51.946;4.838;2022-12-07T04:05:58;10.75;;;1.58;;
39370;SDS011;25099;51.946;4.838;2022-12-07T04:08:24;5.63;;;1.02;;
39370;SDS011;25099;51.946;4.838;2022-12-07T04:10:50;6.88;;;1.08;;
39370;SDS011;25099;51.946;4.838;2022-12-07T04:13:15;4.15;;;0.90;;
39370;SDS011;25099;51.946;4.838;2022-12-07T04:15:41;7.65;;;1.00;;
39370;SDS011;25099;51.946;4.838;2022-12-07T04:18:07;5.65;;;0.82;;
39370;SDS011;25099;51.946;4.838;2022-12-07T04:20:32;6.13;;;0.93;;
39370;SDS011;25099;51.946;4.838;2022-12-07T04:22:58;5.35;;;0.80;;
39370;SDS011;25099;51.946;4.838;2022-12-07T04:25:23;7.03;;;0.70;;
39370;SDS011;25099;51.946;4.838;2022-12-07T04:27:49;5.90;;;0.93;;
39370;SDS011;25099;51.946;4.838;2022-12-07T04:30:15;3.50;;;0.85;;
39370;SDS011;25099;51.946;4.838;2022-12-07T04:32:40;4.80;;;0.90;;
39370;SDS011;25099;51.946;4.838;2022-12-07T04:35:06;7.50;;;0.90;;
39370;SDS011;25099;51.946;4.838;2022-12-07T04:37:32;7.20;;;1.20;;
39370;SDS011;25099;51.946;4.838;2022-12-07T04:39:58;4.50;;;1.00;;
39370;SDS011;25099;51.946;4.838;2022-12-07T04:42:23;7.97;;;1.02;;
39370;SDS011;25099;51.946;4.838;2022-12-07T04:44:49;3.92;;;1.08;;
39370;SDS011;25099;51.946;4.838;2022-12-07T04:47:16;8.65;;;0.90;;
39370;SDS011;25099;51.946;4.838;2022-12-07T04:49:41;4.45;;;1.15;;
39370;SDS011;25099;51.946;4.838;2022-12-07T04:52:07;7.53;;;1.20;;
39370;SDS011;25099;51.946;4.838;2022-12-07T04:54:33;7.72;;;0.90;;
39370;SDS011;25099;51.946;4.838;2022-12-07T04:56:58;2.15;;;0.75;;
39370;SDS011;25099;51.946;4.838;2022-12-07T04:59:24;9.40;;;1.63;;
39370;SDS011;25099;51.946;4.838;2022-12-07T05:01:50;6.53;;;1.17;;
39370;SDS011;25099;51.946;4.838;2022-12-07T05:04:15;10.68;;;1.23;;
39370;SDS011;25099;51.946;4.838;2022-12-07T05:06:42;12.95;;;1.08;;
39370;SDS011;25099;51.946;4.838;2022-12-07T05:09:08;4.60;;;0.70;;
39370;SDS011;25099;51.946;4.838;2022-12-07T05:11:33;9.15;;;1.33;;
39370;SDS011;25099;51.946;4.838;2022-12-07T05:14:07;14.00;;;1.10;;
39370;SDS011;25099;51.946;4.838;2022-12-07T05:16:43;3.72;;;0.75;;
39370;SDS011;25099;51.946;4.838;2022-12-07T05:19:12;3.33;;;0.90;;
39370;SDS011;25099;51.946;4.838;2022-12-07T05:21:38;4.80;;;0.65;;
39370;SDS011;25099;51.946;4.838;2022-12-07T05:24:04;3.72;;;0.88;;
39370;SDS011;25099;51.946;4.838;2022-12-07T05:26:30;5.32;;;0.90;;
39370;SDS011;25099;51.946;4.838;2022-12-07T05:28:56;5.18;;;0.63;;
39370;SDS011;25099;51.946;4.838;2022-12-07T05:31:23;2.25;;;0.47;;
39370;SDS011;25099;51.946;4.838;2022-12-07T05:33:49;5.20;;;0.70;;
39370;SDS011;25099;51.946;4.838;2022-12-07T05:36:15;5.18;;;0.75;;
39370;SDS011;25099;51.946;4.838;2022-12-07T05:38:41;4.82;;;0.75;;
39370;SDS011;25099;51.946;4.838;2022-12-07T05:41:07;3.88;;;0.80;;
39370;SDS011;25099;51.946;4.838;2022-12-07T05:43:53;6.28;;;0.98;;
39370;SDS011;25099;51.946;4.838;2022-12-07T05:46:18;6.55;;;1.20;;
39370;SDS011;25099;51.946;4.838;2022-12-07T05:48:44;7.43;;;0.77;;
39370;SDS011;25099;51.946;4.838;2022-12-07T05:51:09;6.65;;;0.73;;
39370;SDS011;25099;51.946;4.838;2022-12-07T05:53:35;3.90;;;0.80;;
39370;SDS011;25099;51.946;4.838;2022-12-07T05:56:00;6.15;;;0.68;;
39370;SDS011;25099;51.946;4.838;2022-12-07T05:58:26;4.13;;;0.77;;
39370;SDS011;25099;51.946;4.838;2022-12-07T06:01:10;8.10;;;1.00;;
39370;SDS011;25099;51.946;4.838;2022-12-07T06:03:35;4.60;;;1.02;;
39370;SDS011;25099;51.946;4.838;2022-12-07T06:06:01;11.68;;;2.38;;
39370;SDS011;25099;51.946;4.838;2022-12-07T06:08:26;10.73;;;1.17;;
39370;SDS011;25099;51.946;4.838;2022-12-07T06:10:54;11.45;;;1.65;;
39370;SDS011;25099;51.946;4.838;2022-12-07T06:13:40;4.18;;;0.95;;
39370;SDS011;25099;51.946;4.838;2022-12-07T06:16:05;15.30;;;1.52;;
39370;SDS011;25099;51.946;4.838;2022-12-07T06:18:31;8.07;;;1.13;;
39370;SDS011;25099;51.946;4.838;2022-12-07T06:20:57;5.50;;;1.13;;
39370;SDS011;25099;51.946;4.838;2022-12-07T06:23:22;8.10;;;0.95;;
39370;SDS011;25099;51.946;4.838;2022-12-07T06:25:48;7.00;;;1.02;;
39370;SDS011;25099;51.946;4.838;2022-12-07T06:28:13;6.30;;;0.85;;
39370;SDS011;25099;51.946;4.838;2022-12-07T06:30:39;12.75;;;1.30;;
39370;SDS011;25099;51.946;4.838;2022-12-07T06:33:04;7.45;;;1.00;;
39370;SDS011;25099;51.946;4.838;2022-12-07T06:35:32;6.40;;;1.10;;
39370;SDS011;25099;51.946;4.838;2022-12-07T06:37:58;6.00;;;0.90;;
39370;SDS011;25099;51.946;4.838;2022-12-07T06:40:23;10.48;;;2.28;;
39370;SDS011;25099;51.946;4.838;2022-12-07T06:42:52;4.43;;;0.80;;
39370;SDS011;25099;51.946;4.838;2022-12-07T06:45:17;6.35;;;0.98;;
39370;SDS011;25099;51.946;4.838;2022-12-07T06:47:43;4.72;;;1.00;;
39370;SDS011;25099;51.946;4.838;2022-12-07T06:50:09;1.92;;;1.00;;
39370;SDS011;25099;51.946;4.838;2022-12-07T06:52:34;3.70;;;0.90;;
39370;SDS011;25099;51.946;4.838;2022-12-07T06:55:00;6.35;;;0.95;;
39370;SDS011;25099;51.946;4.838;2022-12-07T06:57:26;7.65;;;1.33;;
39370;SDS011;25099;51.946;4.838;2022-12-07T06:59:51;12.35;;;1.38;;
39370;SDS011;25099;51.946;4.838;2022-12-07T07:02:17;13.38;;;1.75;;
39370;SDS011;25099;51.946;4.838;2022-12-07T07:04:43;6.50;;;1.48;;
39370;SDS011;25099;51.946;4.838;2022-12-07T07:07:08;5.97;;;1.40;;
39370;SDS011;25099;51.946;4.838;2022-12-07T07:09:34;4.63;;;1.80;;
39370;SDS011;25099;51.946;4.838;2022-12-07T07:12:00;15.23;;;1.92;;
39370;SDS011;25099;51.946;4.838;2022-12-07T07:14:25;8.15;;;1.88;;
39370;SDS011;25099;51.946;4.838;2022-12-07T07:16:51;4.25;;;1.15;;
39370;SDS011;25099;51.946;4.838;2022-12-07T07:19:17;6.40;;;1.17;;
39370;SDS011;25099;51.946;4.838;2022-12-07T07:21:44;7.07;;;1.98;;
39370;SDS011;25099;51.946;4.838;2022-12-07T07:24:12;4.93;;;1.35;;
39370;SDS011;25099;51.946;4.838;2022-12-07T07:26:38;6.30;;;1.80;;
39370;SDS011;25099;51.946;4.838;2022-12-07T07:29:04;5.70;;;2.80;;
39370;SDS011;25099;51.946;4.838;2022-12-07T07:31:29;6.53;;;3.28;;
39370;SDS011;25099;51.946;4.838;2022-12-07T07:33:55;10.40;;;4.00;;
39370;SDS011;25099;51.946;4.838;2022-12-07T07:36:21;6.50;;;3.03;;
39370;SDS011;25099;51.946;4.838;2022-12-07T07:38:46;9.43;;;3.03;;
39370;SDS011;25099;51.946;4.838;2022-12-07T07:41:12;5.15;;;2.92;;
39370;SDS011;25099;51.946;4.838;2022-12-07T07:43:37;10.07;;;3.42;;
39370;SDS011;25099;51.946;4.838;2022-12-07T07:46:03;7.72;;;3.10;;
39370;SDS011;25099;51.946;4.838;2022-12-07T07:48:28;6.65;;;2.30;;
39370;SDS011;25099;51.946;4.838;2022-12-07T07:50:54;6.10;;;2.50;;
39370;SDS011;25099;51.946;4.838;2022-12-07T07:53:19;7.60;;;1.70;;
39370;SDS011;25099;51.946;4.838;2022-12-07T07:55:52;7.00;;;2.60;;
39370;SDS011;25099;51.946;4.838;2022-12-07T07:58:21;9.40;;;2.70;;
39370;SDS011;25099;51.946;4.838;2022-12-07T08:00:50;7.72;;;1.85;;
39370;SDS011;25099;51.946;4.838;2022-12-07T08:03:16;4.78;;;2.13;;
39370;SDS011;25099;51.946;4.838;2022-12-07T08:05:41;17.50;;;2.83;;
39370;SDS011;25099;51.946;4.838;2022-12-07T08:08:07;13.82;;;5.18;;
39370;SDS011;25099;51.946;4.838;2022-12-07T08:10:32;15.23;;;7.70;;
39370;SDS011;25099;51.946;4.838;2022-12-07T08:13:00;21.92;;;6.30;;
39370;SDS011;25099;51.946;4.838;2022-12-07T08:15:44;12.40;;;6.78;;
39370;SDS011;25099;51.946;4.838;2022-12-07T08:18:11;30.17;;;20.35;;
39370;SDS011;25099;51.946;4.838;2022-12-07T08:20:38;25.63;;;14.27;;
39370;SDS011;25099;51.946;4.838;2022-12-07T08:23:04;27.55;;;12.90;;
39370;SDS011;25099;51.946;4.838;2022-12-07T08:25:31;24.48;;;12.25;;
39370;SDS011;25099;51.946;4.838;2022-12-07T08:27:57;24.85;;;10.82;;
39370;SDS011;25099;51.946;4.838;2022-12-07T08:30:22;12.43;;;8.30;;
39370;SDS011;25099;51.946;4.838;2022-12-07T08:32:48;20.95;;;9.63;;
39370;SDS011;25099;51.946;4.838;2022-12-07T08:35:14;10.95;;;7.57;;
39370;SDS011;25099;51.946;4.838;2022-12-07T08:37:40;14.15;;;7.32;;
39370;SDS011;25099;51.946;4.838;2022-12-07T08:40:06;8.05;;;5.35;;
39370;SDS011;25099;51.946;4.838;2022-12-07T08:42:33;10.13;;;5.20;;
39370;SDS011;25099;51.946;4.838;2022-12-07T08:45:06;10.23;;;3.90;;
39370;SDS011;25099;51.946;4.838;2022-12-07T08:47:43;9.75;;;3.20;;
39370;SDS011;25099;51.946;4.838;2022-12-07T08:50:12;8.65;;;4.15;;
39370;SDS011;25099;51.946;4.838;2022-12-07T08:52:39;4.00;;;2.80;;
39370;SDS011;25099;51.946;4.838;2022-12-07T08:55:06;11.77;;;3.15;;
39370;SDS011;25099;51.946;4.838;2022-12-07T08:57:34;5.18;;;2.17;;
39370;SDS011;25099;51.946;4.838;2022-12-07T09:00:01;10.95;;;1.80;;
39370;SDS011;25099;51.946;4.838;2022-12-07T09:02:28;6.03;;;1.98;;
39370;SDS011;25099;51.946;4.838;2022-12-07T09:04:54;5.20;;;1.80;;
39370;SDS011;25099;51.946;4.838;2022-12-07T09:07:19;4.45;;;1.50;;
39370;SDS011;25099;51.946;4.838;2022-12-07T09:09:45;4.32;;;1.50;;
39370;SDS011;25099;51.946;4.838;2022-12-07T09:12:10;5.75;;;1.25;;
39370;SDS011;25099;51.946;4.838;2022-12-07T09:14:36;5.70;;;1.25;;
39370;SDS011;25099;51.946;4.838;2022-12-07T09:17:05;8.25;;;1.25;;
39370;SDS011;25099;51.946;4.838;2022-12-07T09:22:00;5.70;;;1.33;;
39370;SDS011;25099;51.946;4.838;2022-12-07T09:24:26;4.10;;;1.08;;
39370;SDS011;25099;51.946;4.838;2022-12-07T09:26:52;9.80;;;1.80;;
39370;SDS011;25099;51.946;4.838;2022-12-07T09:29:17;7.72;;;2.13;;
39370;SDS011;25099;51.946;4.838;2022-12-07T09:31:43;4.90;;;2.00;;
39370;SDS011;25099;51.946;4.838;2022-12-07T09:34:08;10.10;;;2.45;;
39370;SDS011;25099;51.946;4.838;2022-12-07T09:36:34;7.20;;;1.90;;
39370;SDS011;25099;51.946;4.838;2022-12-07T09:38:59;11.40;;;2.53;;
39370;SDS011;25099;51.946;4.838;2022-12-07T09:41:26;6.15;;;2.22;;
39370;SDS011;25099;51.946;4.838;2022-12-07T09:43:55;10.43;;;2.13;;
39370;SDS011;25099;51.946;4.838;2022-12-07T09:46:29;10.85;;;2.00;;
39370;SDS011;25099;51.946;4.838;2022-12-07T09:49:01;4.32;;;1.67;;
39370;SDS011;25099;51.946;4.838;2022-12-07T09:51:27;7.95;;;1.73;;
39370;SDS011;25099;51.946;4.838;2022-12-07T09:53:54;3.58;;;1.77;;
39370;SDS011;25099;51.946;4.838;2022-12-07T09:56:22;8.52;;;1.40;;
39370;SDS011;25099;51.946;4.838;2022-12-07T09:58:49;8.93;;;1.42;;
39370;SDS011;25099;51.946;4.838;2022-12-07T10:01:19;8.98;;;1.58;;
39370;SDS011;25099;51.946;4.838;2022-12-07T10:03:50;3.28;;;1.75;;
39370;SDS011;25099;51.946;4.838;2022-12-07T10:06:18;4.25;;;1.25;;
39370;SDS011;25099;51.946;4.838;2022-12-07T10:08:43;3.25;;;1.15;;
39370;SDS011;25099;51.946;4.838;2022-12-07T10:11:10;11.48;;;1.42;;
39370;SDS011;25099;51.946;4.838;2022-12-07T10:13:40;5.97;;;1.58;;
39370;SDS011;25099;51.946;4.838;2022-12-07T10:16:06;7.35;;;1.30;;
39370;SDS011;25099;51.946;4.838;2022-12-07T10:18:52;4.18;;;1.52;;
39370;SDS011;25099;51.946;4.838;2022-12-07T10:21:23;6.18;;;1.50;;
39370;SDS011;25099;51.946;4.838;2022-12-07T10:31:47;4.05;;;2.38;;
39370;SDS011;25099;51.946;4.838;2022-12-07T10:39:54;7.93;;;1.70;;
39370;SDS011;25099;51.946;4.838;2022-12-07T10:42:31;4.80;;;2.63;;
39370;SDS011;25099;51.946;4.838;2022-12-07T10:53:11;5.70;;;1.75;;
39370;SDS011;25099;51.946;4.838;2022-12-07T11:03:44;8.95;;;2.00;;
39370;SDS011;25099;51.946;4.838;2022-12-07T11:11:51;1.35;;;0.90;;
39370;SDS011;25099;51.946;4.838;2022-12-07T11:17:10;4.63;;;0.80;;
39370;SDS011;25099;51.946;4.838;2022-12-07T11:19:54;1.90;;;1.27;;
39370;SDS011;25099;51.946;4.838;2022-12-07T11:22:47;5.07;;;0.90;;
39370;SDS011;25099;51.946;4.838;2022-12-07T11:28:17;3.10;;;0.80;;
39370;SDS011;25099;51.946;4.838;2022-12-07T11:33:29;5.45;;;0.77;;
39370;SDS011;25099;51.946;4.838;2022-12-07T11:42:02;5.93;;;1.02;;
39370;SDS011;25099;51.946;4.838;2022-12-07T11:44:47;8.90;;;1.50;;
39370;SDS011;25099;51.946;4.838;2022-12-07T11:47:34;5.00;;;1.25;;
39370;SDS011;25099;51.946;4.838;2022-12-07T11:53:09;8.98;;;0.98;;
39370;SDS011;25099;51.946;4.838;2022-12-07T11:55:52;5.07;;;1.27;;
39370;SDS011;25099;51.946;4.838;2022-12-07T12:03:40;4.47;;;1.23;;
39370;SDS011;25099;51.946;4.838;2022-12-07T12:06:15;7.38;;;1.20;;
39370;SDS011;25099;51.946;4.838;2022-12-07T12:08:54;6.88;;;1.20;;
39370;SDS011;25099;51.946;4.838;2022-12-07T12:14:33;6.43;;;1.95;;
39370;SDS011;25099;51.946;4.838;2022-12-07T12:17:44;4.10;;;1.75;;
39370;SDS011;25099;51.946;4.838;2022-12-07T12:26:03;5.13;;;0.98;;
39370;SDS011;25099;51.946;4.838;2022-12-07T12:31:16;5.78;;;0.60;;
39370;SDS011;25099;51.946;4.838;2022-12-07T12:33:46;6.07;;;0.80;;
39370;SDS011;25099;51.946;4.838;2022-12-07T12:46:47;5.93;;;0.63;;
39370;SDS011;25099;51.946;4.838;2022-12-07T12:51:48;2.17;;;0.90;;
39370;SDS011;25099;51.946;4.838;2022-12-07T12:54:18;5.70;;;1.10;;
39370;SDS011;25099;51.946;4.838;2022-12-07T12:56:55;5.93;;;0.88;;
39370;SDS011;25099;51.946;4.838;2022-12-07T13:02:27;7.65;;;1.73;;
39370;SDS011;25099;51.946;4.838;2022-12-07T13:12:57;8.27;;;1.80;;
39370;SDS011;25099;51.946;4.838;2022-12-07T13:23:51;4.40;;;0.73;;
39370;SDS011;25099;51.946;4.838;2022-12-07T13:31:39;3.55;;;0.40;;
39370;SDS011;25099;51.946;4.838;2022-12-07T13:37:02;4.50;;;0.85;;
39370;SDS011;25099;51.946;4.838;2022-12-07T13:39:49;1.95;;;0.60;;
39370;SDS011;25099;51.946;4.838;2022-12-07T13:42:25;4.97;;;0.57;;
39370;SDS011;25099;51.946;4.838;2022-12-07T13:44:54;4.53;;;0.80;;
39370;SDS011;25099;51.946;4.838;2022-12-07T13:47:41;5.07;;;0.90;;
39370;SDS011;25099;51.946;4.838;2022-12-07T13:52:56;4.32;;;0.98;;
39370;SDS011;25099;51.946;4.838;2022-12-07T13:55:25;4.82;;;0.60;;
39370;SDS011;25099;51.946;4.838;2022-12-07T13:57:52;2.33;;;0.43;;
39370;SDS011;25099;51.946;4.838;2022-12-07T14:00:20;4.90;;;0.70;;
39370;SDS011;25099;51.946;4.838;2022-12-07T14:05:31;2.13;;;0.57;;
39370;SDS011;25099;51.946;4.838;2022-12-07T14:10:31;2.88;;;1.00;;
39370;SDS011;25099;51.946;4.838;2022-12-07T14:12:59;5.68;;;1.48;;
39370;SDS011;25099;51.946;4.838;2022-12-07T14:15:27;3.80;;;0.60;;
39370;SDS011;25099;51.946;4.838;2022-12-07T14:17:58;1.90;;;0.70;;
39370;SDS011;25099;51.946;4.838;2022-12-07T14:23:02;2.45;;;0.80;;
39370;SDS011;25099;51.946;4.838;2022-12-07T14:25:44;2.33;;;0.50;;
39370;SDS011;25099;51.946;4.838;2022-12-07T14:31:17;6.50;;;0.55;;
39370;SDS011;25099;51.946;4.838;2022-12-07T14:33:46;3.97;;;0.50;;
39370;SDS011;25099;51.946;4.838;2022-12-07T14:36:12;2.25;;;0.68;;
39370;SDS011;25099;51.946;4.838;2022-12-07T14:38:39;3.33;;;0.80;;
39370;SDS011;25099;51.946;4.838;2022-12-07T14:41:06;6.03;;;0.90;;
39370;SDS011;25099;51.946;4.838;2022-12-07T14:43:57;1.38;;;0.63;;
39370;SDS011;25099;51.946;4.838;2022-12-07T14:46:22;3.15;;;1.02;;
39370;SDS011;25099;51.946;4.838;2022-12-07T14:48:48;2.15;;;0.80;;
39370;SDS011;25099;51.946;4.838;2022-12-07T14:51:13;2.47;;;0.68;;
39370;SDS011;25099;51.946;4.838;2022-12-07T14:53:42;2.13;;;0.88;;
39370;SDS011;25099;51.946;4.838;2022-12-07T14:56:13;5.75;;;0.80;;
39370;SDS011;25099;51.946;4.838;2022-12-07T14:58:39;4.53;;;0.70;;
39370;SDS011;25099;51.946;4.838;2022-12-07T15:01:05;3.40;;;0.98;;
39370;SDS011;25099;51.946;4.838;2022-12-07T15:03:31;2.20;;;0.73;;
39370;SDS011;25099;51.946;4.838;2022-12-07T15:05:59;2.00;;;0.50;;
39370;SDS011;25099;51.946;4.838;2022-12-07T15:08:25;5.05;;;0.90;;
39370;SDS011;25099;51.946;4.838;2022-12-07T15:10:51;3.05;;;0.88;;
39370;SDS011;25099;51.946;4.838;2022-12-07T15:13:17;2.92;;;1.58;;
39370;SDS011;25099;51.946;4.838;2022-12-07T15:16:01;4.43;;;1.92;;
39370;SDS011;25099;51.946;4.838;2022-12-07T15:18:27;4.57;;;3.42;;
39370;SDS011;25099;51.946;4.838;2022-12-07T15:20:52;12.23;;;6.40;;
39370;SDS011;25099;51.946;4.838;2022-12-07T15:23:18;7.22;;;4.32;;
39370;SDS011;25099;51.946;4.838;2022-12-07T15:25:45;5.85;;;2.60;;
39370;SDS011;25099;51.946;4.838;2022-12-07T15:28:12;5.63;;;1.85;;
39370;SDS011;25099;51.946;4.838;2022-12-07T15:30:41;4.35;;;2.08;;
39370;SDS011;25099;51.946;4.838;2022-12-07T15:33:08;4.07;;;2.28;;
39370;SDS011;25099;51.946;4.838;2022-12-07T15:35:39;3.83;;;1.92;;
39370;SDS011;25099;51.946;4.838;2022-12-07T15:38:05;4.22;;;1.58;;
39370;SDS011;25099;51.946;4.838;2022-12-07T15:40:30;4.00;;;1.42;;
39370;SDS011;25099;51.946;4.838;2022-12-07T15:42:57;2.65;;;1.27;;
39370;SDS011;25099;51.946;4.838;2022-12-07T15:45:24;2.50;;;1.50;;
39370;SDS011;25099;51.946;4.838;2022-12-07T15:47:49;1.77;;;1.00;;
39370;SDS011;25099;51.946;4.838;2022-12-07T15:50:15;1.77;;;0.98;;
39370;SDS011;25099;51.946;4.838;2022-12-07T15:52:42;1.70;;;0.85;;
39370;SDS011;25099;51.946;4.838;2022-12-07T15:55:10;4.53;;;1.60;;
39370;SDS011;25099;51.946;4.838;2022-12-07T15:57:36;6.35;;;2.00;;
39370;SDS011;25099;51.946;4.838;2022-12-07T16:00:04;3.88;;;1.80;;
39370;SDS011;25099;51.946;4.838;2022-12-07T16:02:30;3.90;;;2.22;;
39370;SDS011;25099;51.946;4.838;2022-12-07T16:04:56;6.65;;;2.60;;
39370;SDS011;25099;51.946;4.838;2022-12-07T16:07:21;6.32;;;2.22;;
39370;SDS011;25099;51.946;4.838;2022-12-07T16:09:47;6.18;;;2.05;;
39370;SDS011;25099;51.946;4.838;2022-12-07T16:12:14;14.45;;;2.20;;
39370;SDS011;25099;51.946;4.838;2022-12-07T16:14:40;4.30;;;1.90;;
39370;SDS011;25099;51.946;4.838;2022-12-07T16:17:06;5.35;;;1.90;;
39370;SDS011;25099;51.946;4.838;2022-12-07T16:19:33;3.97;;;1.90;;
39370;SDS011;25099;51.946;4.838;2022-12-07T16:21:59;5.20;;;1.77;;
39370;SDS011;25099;51.946;4.838;2022-12-07T16:24:28;7.07;;;1.42;;
39370;SDS011;25099;51.946;4.838;2022-12-07T16:26:54;7.50;;;1.90;;
39370;SDS011;25099;51.946;4.838;2022-12-07T16:29:20;6.53;;;1.92;;
39370;SDS011;25099;51.946;4.838;2022-12-07T16:31:46;7.43;;;2.13;;
39370;SDS011;25099;51.946;4.838;2022-12-07T16:34:13;5.57;;;1.88;;
39370;SDS011;25099;51.946;4.838;2022-12-07T16:36:39;21.17;;;8.27;;
39370;SDS011;25099;51.946;4.838;2022-12-07T16:39:04;42.03;;;15.00;;
39370;SDS011;25099;51.946;4.838;2022-12-07T16:41:30;38.58;;;16.15;;
39370;SDS011;25099;51.946;4.838;2022-12-07T16:43:56;31.48;;;16.30;;
39370;SDS011;25099;51.946;4.838;2022-12-07T16:46:22;20.00;;;9.55;;
39370;SDS011;25099;51.946;4.838;2022-12-07T16:48:47;12.20;;;6.40;;
39370;SDS011;25099;51.946;4.838;2022-12-07T16:51:14;5.97;;;4.63;;
39370;SDS011;25099;51.946;4.838;2022-12-07T16:53:40;9.13;;;7.00;;
39370;SDS011;25099;51.946;4.838;2022-12-07T16:56:14;9.30;;;8.40;;
39370;SDS011;25099;51.946;4.838;2022-12-07T16:58:40;11.05;;;7.55;;
39370;SDS011;25099;51.946;4.838;2022-12-07T17:01:17;9.32;;;6.22;;
39370;SDS011;25099;51.946;4.838;2022-12-07T17:03:45;10.57;;;6.30;;
39370;SDS011;25099;51.946;4.838;2022-12-07T17:06:11;13.45;;;7.32;;
39370;SDS011;25099;51.946;4.838;2022-12-07T17:08:42;14.77;;;7.13;;
39370;SDS011;25099;51.946;4.838;2022-12-07T17:11:15;13.82;;;6.93;;
39370;SDS011;25099;51.946;4.838;2022-12-07T17:13:43;7.78;;;5.03;;
39370;SDS011;25099;51.946;4.838;2022-12-07T17:16:27;7.13;;;5.80;;
39370;SDS011;25099;51.946;4.838;2022-12-07T17:18:58;13.57;;;6.30;;
39370;SDS011;25099;51.946;4.838;2022-12-07T17:21:24;9.38;;;5.03;;
39370;SDS011;25099;51.946;4.838;2022-12-07T17:23:50;8.02;;;5.22;;
39370;SDS011;25099;51.946;4.838;2022-12-07T17:26:17;7.20;;;5.00;;
39370;SDS011;25099;51.946;4.838;2022-12-07T17:28:45;8.55;;;4.38;;
39370;SDS011;25099;51.946;4.838;2022-12-07T17:31:12;9.00;;;4.75;;
39370;SDS011;25099;51.946;4.838;2022-12-07T17:33:39;15.73;;;6.65;;
39370;SDS011;25099;51.946;4.838;2022-12-07T17:36:11;17.75;;;6.15;;
39370;SDS011;25099;51.946;4.838;2022-12-07T17:38:38;10.02;;;5.90;;
39370;SDS011;25099;51.946;4.838;2022-12-07T17:41:11;9.35;;;4.43;;
39370;SDS011;25099;51.946;4.838;2022-12-07T17:43:58;12.10;;;5.15;;
39370;SDS011;25099;51.946;4.838;2022-12-07T17:46:25;10.23;;;5.93;;